Flight Track Log - Related Links

Times and Time Zones

All times are in EDT time to prevent confusion due to time zone crossing. See the KAP66 flight status page for this flight to view local times or setup timezone preferences in your user account.

Time Position Orientation Groundspeed Altitude Reporting Facility
EDT Latitude Longitude Course Direction KTS MPH feet Rate Location/Type
Tue 07:05:58 AM 41.6631 -70.9422 119° Southeast 115 132 500  Level Boston Center
Tue 07:06:52 AM 41.6481 -70.9067 119° Southeast 114 131 1,100 667 Climbing Boston Center
Tue 07:08:00 AM 41.6271 -70.8674 126° Southeast  Level FlightAware Approximate
Tue 07:15:00 AM 41.5090 -70.6153 121° Southeast  Level FlightAware Approximate
Tue 07:16:00 AM 41.4928 -70.5788 121° Southeast  Level FlightAware Approximate
Tue 07:17:00 AM 41.4766 -70.5423 121° Southeast  Level FlightAware Approximate
Tue 07:18:00 AM 41.4603 -70.5058 121° Southeast  Level FlightAware Approximate
Tue 07:19:00 AM 41.4441 -70.4693 121° Southeast  Level FlightAware Approximate
Tue 07:20:00 AM 41.4278 -70.4328 121° Southeast  Level FlightAware Approximate
Tue 07:21:00 AM 41.4115 -70.3964 121° Southeast  Level FlightAware Approximate
Tue 07:22:00 AM 41.3952 -70.3600 121° Southeast  Level FlightAware Approximate
Tue 07:23:00 AM 41.3799 -70.3229 114° Southeast  Level FlightAware Approximate
Tue 07:24:00 AM 41.3670 -70.2842 114° Southeast  Level FlightAware Approximate
Tue 07:25:00 AM 41.3468 -70.2515 130° Southeast  Level FlightAware Approximate
Tue 07:26:00 AM 41.3265 -70.2189 130° Southeast  Level FlightAware Approximate
Tue 07:27:00 AM 41.3061 -70.1864 130° Southeast  Level FlightAware Approximate
Tue 07:28:00 AM 41.2857 -70.1538 130° Southeast  Level FlightAware Approximate
Tue 07:29:00 AM 41.2720 -70.1159 114° Southeast  Level FlightAware Approximate
Tue 07:30:00 AM 41.2591 -70.0772 114° Southeast  Level FlightAware Approximate
Tue 07:31:00 AM 41.2531 -70.0603 114° Southeast  Level Estimated
Tue 07:32:00 AM 41.2531 -70.0603 114° Southeast  Level Estimated
Tue 07:33:00 AM 41.2531 -70.0603 114° Southeast  Level Estimated
Tue 07:34:00 AM 41.2531 -70.0603 114° Southeast  Level Estimated
Tue 07:35:00 AM 41.2531 -70.0603 114° Southeast  Level Estimated
Tue 07:36:00 AM 41.2531 -70.0603 114° Southeast  Level Estimated
Tue 07:37:00 AM 41.2531 -70.0603 114° Southeast  Level Estimated
Tue 07:38:00 AM 41.2531 -70.0603 114° Southeast  Level Estimated
Tue 07:39:00 AM 41.2531 -70.0603 114° Southeast  Level Estimated
Tue 07:40:00 AM 41.2531 -70.0603 114° Southeast  Level Estimated
Tue 07:41:00 AM 41.2531 -70.0603 114° Southeast  Level Estimated
Tue 07:42:00 AM 41.2531 -70.0603 114° Southeast  Level Estimated
Tue 07:43:00 AM 41.2531 -70.0603 114° Southeast  Level Estimated
Tue 07:44:00 AM 41.2531 -70.0603 114° Southeast  Level Estimated
Tue 07:45:00 AM 41.2531 -70.0603 114° Southeast  Level Estimated
Tue 07:46:00 AM 41.2531 -70.0603 114° Southeast  Level Estimated

Login

Don't have an account? Register now (free) for customized features, flight alerts, and more!